Time;durP1;ratioP1;P1;durP2;ratioP2;P2;SDS_P1;SDS_P2;PMS_P1;PMS_P2;Temp;Humidity;BMP_temperature;BMP_pressure;BME280_temperature;BME280_humidity;BME280_pressure;Samples;Min_cycle;Max_cycle;Signal;HPM_P1;HPM_P2
2022/12/27 00:02:00;;;;;;;;;;;;;;;11.92;nan;101593.94;5039959;28;19921;-34
2022/12/27 00:04:26;;;;;;;;;;;;;;;11.90;nan;101591.50;5046139;28;20118;-33
2022/12/27 00:06:51;;;;;;;;;;;;;;;11.87;nan;101580.41;5042017;28;19924;-33
2022/12/27 00:09:17;;;;;;;;;;;;;;;11.86;nan;101586.84;5038034;28;19917;-33
2022/12/27 00:11:42;;;;;;;;;;;;;;;11.87;nan;101585.78;5040101;28;19982;-33
2022/12/27 00:14:09;;;;;;;;;;;;;;;11.89;nan;101586.34;5042409;28;19927;-34
2022/12/27 00:16:34;;;;;;;;;;;;;;;11.89;nan;101575.63;5039667;28;20440;-33
2022/12/27 00:18:59;;;;;;;;;;;;;;;11.89;nan;101572.94;5036483;28;19920;-34
2022/12/27 00:21:25;;;;;;;;;;;;;;;11.85;nan;101577.13;5038582;28;19933;-34
2022/12/27 00:23:51;;;;;;;;;;;;;;;11.85;nan;101577.13;5042024;28;19917;-33
2022/12/27 00:26:18;;;;;;;;;;;;;;;11.91;nan;101581.56;5036011;28;19929;-34
2022/12/27 00:28:44;;;;;;;;;;;;;;;11.88;nan;101573.97;5040688;28;20282;-34
2022/12/27 00:31:10;;;;;;;;;;;;;;;11.88;nan;101577.50;5042991;28;19916;-33
2022/12/27 00:33:36;;;;;;;;;;;;;;;11.87;nan;101581.22;5045124;28;19932;-34
2022/12/27 00:36:02;;;;;;;;;;;;;;;11.85;nan;101587.84;5040775;28;19917;-34
2022/12/27 00:38:28;;;;;;;;;;;;;;;11.85;nan;101582.50;5036429;28;20617;-33
2022/12/27 00:40:53;;;;;;;;;;;;;;;11.80;nan;101588.56;5039704;28;19921;-33
2022/12/27 00:43:18;;;;;;;;;;;;;;;11.86;nan;101584.16;5043945;28;19917;-33
2022/12/27 00:45:44;;;;;;;;;;;;;;;11.77;nan;101589.84;5045498;28;19966;-33
2022/12/27 00:48:10;;;;;;;;;;;;;;;11.74;nan;101593.00;5041458;28;19917;-34
2022/12/27 00:50:35;;;;;;;;;;;;;;;11.78;nan;101588.81;5039852;28;20714;-33
2022/12/27 00:53:01;;;;;;;;;;;;;;;11.77;nan;101587.16;5041879;28;19920;-33
2022/12/27 00:55:26;;;;;;;;;;;;;;;11.77;nan;101597.88;5040981;28;20402;-34
2022/12/27 00:57:51;;;;;;;;;;;;;;;11.74;nan;101603.72;5041265;28;19927;-33
2022/12/27 01:00:17;;;;;;;;;;;;;;;11.73;nan;101602.09;5043814;28;19923;-34
2022/12/27 01:02:42;;;;;;;;;;;;;;;11.77;nan;101608.63;5038876;28;19921;-34
2022/12/27 01:05:07;;;;;;;;;;;;;;;11.71;nan;101611.44;5043026;28;20051;-33
2022/12/27 01:07:33;;;;;;;;;;;;;;;11.71;nan;101619.50;5041749;28;19960;-34
2022/12/27 01:09:58;;;;;;;;;;;;;;;11.63;nan;101627.88;5044486;28;20469;-33
2022/12/27 01:12:23;;;;;;;;;;;;;;;11.56;nan;101630.69;5042452;28;19917;-33
2022/12/27 01:14:49;;;;;;;;;;;;;;;11.57;nan;101629.66;5044012;28;19921;-34
2022/12/27 01:17:14;;;;;;;;;;;;;;;11.59;nan;101632.91;5044495;28;19916;-34
2022/12/27 01:19:39;;;;;;;;;;;;;;;11.54;nan;101634.66;5038308;28;19943;-33
2022/12/27 01:22:05;;;;;;;;;;;;;;;11.52;nan;101637.59;5036825;28;19917;-34
2022/12/27 01:24:31;;;;;;;;;;;;;;;11.46;nan;101649.22;5041254;28;19916;-33
2022/12/27 01:26:56;;;;;;;;;;;;;;;11.40;nan;101648.28;5042380;28;19933;-33
2022/12/27 01:29:22;;;;;;;;;;;;;;;11.36;nan;101655.19;5040319;28;19939;-33
2022/12/27 01:31:48;;;;;;;;;;;;;;;11.36;nan;101646.31;5039791;28;20508;-33
2022/12/27 01:34:14;;;;;;;;;;;;;;;11.32;nan;101658.56;5041495;28;19970;-34
2022/12/27 01:36:39;;;;;;;;;;;;;;;11.28;nan;101657.38;5036862;28;19920;-34
2022/12/27 01:39:07;;;;;;;;;;;;;;;11.25;nan;101665.88;5038789;28;19952;-34
2022/12/27 01:44:39;;;;;;;;;;;;;;;11.24;nan;101672.28;5053880;22;20014;-31
2022/12/27 01:47:23;;;;;;;;;;;;;;;11.19;nan;101673.81;5040481;28;19924;-31
2022/12/27 01:49:54;;;;;;;;;;;;;;;11.22;nan;101669.03;5038768;28;19928;-31
2022/12/27 01:52:21;;;;;;;;;;;;;;;11.25;nan;101671.25;5037458;28;19948;-31
2022/12/27 01:54:47;;;;;;;;;;;;;;;11.20;nan;101670.06;5025855;28;19925;-31
2022/12/27 01:57:12;;;;;;;;;;;;;;;11.22;nan;101679.75;5023709;28;19924;-31
2022/12/27 01:59:38;;;;;;;;;;;;;;;11.22;nan;101677.88;5020548;28;20541;-31
2022/12/27 02:02:04;;;;;;;;;;;;;;;11.17;nan;101681.25;5024514;28;19951;-31
2022/12/27 02:04:30;;;;;;;;;;;;;;;11.16;nan;101687.69;5022734;28;19920;-32
2022/12/27 02:06:56;;;;;;;;;;;;;;;11.14;nan;101689.78;5025300;28;19929;-31
2022/12/27 02:09:27;;;;;;;;;;;;;;;11.14;nan;101687.09;5021941;28;20287;-31
2022/12/27 02:11:55;;;;;;;;;;;;;;;11.11;nan;101690.22;5022642;28;19943;-31
2022/12/27 02:14:39;;;;;;;;;;;;;;;11.11;nan;101700.13;5024656;28;19949;-31
2022/12/27 02:17:30;;;;;;;;;;;;;;;11.03;nan;101698.59;5023678;28;19918;-31
2022/12/27 02:20:14;;;;;;;;;;;;;;;10.99;nan;101701.97;5022456;28;20062;-31
2022/12/27 02:25:23;;;;;;;;;;;;;;;10.93;nan;101700.97;5026825;28;19928;-31
2022/12/27 02:27:54;;;;;;;;;;;;;;;10.95;nan;101716.84;5022115;28;20059;-31
2022/12/27 02:30:20;;;;;;;;;;;;;;;10.88;nan;101711.56;5025398;28;19941;-31
2022/12/27 02:32:54;;;;;;;;;;;;;;;10.88;nan;101719.63;5021748;28;20362;-31
2022/12/27 02:35:23;;;;;;;;;;;;;;;10.82;nan;101710.63;5023293;28;19941;-31
2022/12/27 02:38:02;;;;;;;;;;;;;;;10.75;nan;101717.09;5022317;28;20017;-31
2022/12/27 02:54:30;;;;;;;;;;;;;;;10.53;nan;101736.31;5025119;28;20444;-31
2022/12/27 02:57:09;;;;;;;;;;;;;;;10.42;nan;101734.41;5019178;28;20052;-32
2022/12/27 03:05:22;;;;;;;;;;;;;;;10.41;nan;101756.88;5022806;28;19927;-31
2022/12/27 03:07:54;;;;;;;;;;;;;;;10.39;nan;101758.13;5024378;28;19921;-32
2022/12/27 03:16:13;;;;;;;;;;;;;;;10.29;nan;101766.69;5026399;28;19928;-31
2022/12/27 03:18:58;;;;;;;;;;;;;;;10.25;nan;101765.50;5020484;28;19929;-31
2022/12/27 03:26:57;;;;;;;;;;;;;;;10.17;nan;101768.41;5018930;28;19979;-31
2022/12/27 03:34:57;;;;;;;;;;;;;;;10.13;nan;101772.56;5027585;28;20438;-31
2022/12/27 03:40:19;;;;;;;;;;;;;;;10.06;nan;101775.31;5027251;28;20202;-31
2022/12/27 03:48:23;;;;;;;;;;;;;;;10.02;nan;101778.63;5026564;28;20017;-31
2022/12/27 03:50:53;;;;;;;;;;;;;;;10.04;nan;101777.38;5025705;28;19971;-31
2022/12/27 03:53:22;;;;;;;;;;;;;;;9.97;nan;101780.13;5023702;28;20268;-31
2022/12/27 03:55:48;;;;;;;;;;;;;;;9.91;nan;101786.34;5027395;28;19931;-31
2022/12/27 03:58:13;;;;;;;;;;;;;;;9.91;nan;101789.03;5028703;28;19921;-31
2022/12/27 04:00:39;;;;;;;;;;;;;;;9.91;nan;101788.22;5021724;28;19921;-31
2022/12/27 04:03:04;;;;;;;;;;;;;;;9.83;nan;101791.97;5026274;28;19917;-32
2022/12/27 04:05:29;;;;;;;;;;;;;;;9.75;nan;101781.53;5027295;28;19928;-32
2022/12/27 04:35:14;;;;;;;;;;;;;;;9.54;nan;101787.25;5029313;28;20004;-32
2022/12/27 04:37:40;;;;;;;;;;;;;;;9.58;nan;101783.09;5022795;28;20166;-31
2022/12/27 04:56:29;;;;;;;;;;;;;;;9.47;nan;101789.13;5025536;28;20004;-31
2022/12/27 05:04:23;;;;;;;;;;;;;;;9.41;nan;101798.03;5028299;28;19924;-31
2022/12/27 05:06:48;;;;;;;;;;;;;;;9.39;nan;101804.41;5025869;28;19925;-31
2022/12/27 05:14:41;;;;;;;;;;;;;;;9.31;nan;101804.63;5026018;28;20484;-31
2022/12/27 05:17:06;;;;;;;;;;;;;;;9.31;nan;101803.81;5027368;28;19939;-31
2022/12/27 05:19:32;;;;;;;;;;;;;;;9.29;nan;101803.22;5026657;28;20647;-31
2022/12/27 05:27:25;;;;;;;;;;;;;;;9.27;nan;101790.06;5025727;28;20190;-31
2022/12/27 05:29:50;;;;;;;;;;;;;;;9.22;nan;101811.28;5026056;28;19921;-31
2022/12/27 05:32:16;;;;;;;;;;;;;;;9.21;nan;101801.63;5027328;28;19957;-31
2022/12/27 05:34:41;;;;;;;;;;;;;;;9.23;nan;101799.53;5025842;28;19967;-31
2022/12/27 05:37:07;;;;;;;;;;;;;;;9.26;nan;101812.50;5027272;28;19947;-31
2022/12/27 05:39:32;;;;;;;;;;;;;;;9.27;nan;101806.09;5026348;28;20298;-31
2022/12/27 05:41:57;;;;;;;;;;;;;;;9.20;nan;101807.19;5025593;28;20294;-31
2022/12/27 05:44:23;;;;;;;;;;;;;;;9.18;nan;101804.72;5024313;28;20289;-31
2022/12/27 05:46:48;;;;;;;;;;;;;;;9.17;nan;101816.44;5021806;28;20424;-31
2022/12/27 05:49:13;;;;;;;;;;;;;;;9.17;nan;101820.97;5028503;28;19956;-31
2022/12/27 05:51:39;;;;;;;;;;;;;;;9.17;nan;101821.81;5025070;28;20831;-31
2022/12/27 05:54:04;;;;;;;;;;;;;;;9.15;nan;101818.50;5026663;28;19921;-31
2022/12/27 05:56:29;;;;;;;;;;;;;;;9.15;nan;101823.84;5026691;28;19928;-31
2022/12/27 05:58:55;;;;;;;;;;;;;;;9.12;nan;101826.94;5021448;28;19917;-31
2022/12/27 06:01:20;;;;;;;;;;;;;;;9.17;nan;101831.69;5021794;28;19921;-31
2022/12/27 06:03:45;;;;;;;;;;;;;;;9.17;nan;101827.16;5023676;28;20067;-31
2022/12/27 06:06:11;;;;;;;;;;;;;;;9.17;nan;101824.47;5022462;28;19921;-30
2022/12/27 06:08:37;;;;;;;;;;;;;;;9.17;nan;101818.31;5024962;28;19963;-31
2022/12/27 06:11:07;;;;;;;;;;;;;;;9.13;nan;101823.22;5024976;28;20367;-31
2022/12/27 06:13:33;;;;;;;;;;;;;;;9.15;nan;101825.69;5023608;28;20451;-31
2022/12/27 06:15:59;;;;;;;;;;;;;;;9.19;nan;101822.41;5024111;28;20184;-31
2022/12/27 06:18:24;;;;;;;;;;;;;;;9.13;nan;101820.56;5022108;28;19917;-31
2022/12/27 06:20:49;;;;;;;;;;;;;;;9.08;nan;101823.06;5023816;28;20382;-31
2022/12/27 06:23:15;;;;;;;;;;;;;;;9.13;nan;101830.44;5025848;28;19994;-31
2022/12/27 06:25:40;;;;;;;;;;;;;;;9.12;nan;101821.59;5026238;28;20012;-31
2022/12/27 06:28:05;;;;;;;;;;;;;;;9.13;nan;101833.09;5022361;28;19932;-31
2022/12/27 06:30:31;;;;;;;;;;;;;;;9.11;nan;101827.97;5012406;28;19917;-33
2022/12/27 06:32:56;;;;;;;;;;;;;;;9.09;nan;101819.34;5024388;28;19925;-33
2022/12/27 06:35:21;;;;;;;;;;;;;;;9.09;nan;101830.03;5026095;28;19924;-33
2022/12/27 06:37:47;;;;;;;;;;;;;;;9.06;nan;101825.94;5022008;28;19921;-33
2022/12/27 06:40:12;;;;;;;;;;;;;;;9.05;nan;101829.66;5022732;28;19917;-33
2022/12/27 06:42:38;;;;;;;;;;;;;;;9.09;nan;101836.22;5024682;28;20048;-33
2022/12/27 06:45:05;;;;;;;;;;;;;;;9.12;nan;101842.16;5026151;28;20391;-33
2022/12/27 06:47:30;;;;;;;;;;;;;;;9.08;nan;101844.44;5022504;28;19917;-33
2022/12/27 06:49:56;;;;;;;;;;;;;;;9.08;nan;101844.44;5021955;28;19921;-33
2022/12/27 06:52:22;;;;;;;;;;;;;;;9.03;nan;101849.63;5024795;28;19917;-33
2022/12/27 06:54:47;;;;;;;;;;;;;;;9.05;nan;101855.56;5024282;28;21907;-33
2022/12/27 06:57:13;;;;;;;;;;;;;;;9.10;nan;101863.75;5026547;28;20004;-33
2022/12/27 06:59:38;;;;;;;;;;;;;;;9.12;nan;101842.97;5020805;28;19931;-33
2022/12/27 07:02:03;;;;;;;;;;;;;;;9.06;nan;101852.69;5025262;28;20430;-33
2022/12/27 07:04:29;;;;;;;;;;;;;;;9.06;nan;101862.56;5026375;28;20318;-33
2022/12/27 07:06:54;;;;;;;;;;;;;;;9.11;nan;101869.94;5020396;28;19999;-33
2022/12/27 07:09:19;;;;;;;;;;;;;;;9.14;nan;101877.53;5023371;28;20326;-33
2022/12/27 07:11:45;;;;;;;;;;;;;;;9.10;nan;101874.47;5026733;28;20476;-33
2022/12/27 07:14:10;;;;;;;;;;;;;;;9.05;nan;101874.28;5025378;28;19928;-33
2022/12/27 07:16:36;;;;;;;;;;;;;;;9.04;nan;101886.00;5025076;28;19917;-33
2022/12/27 07:19:01;;;;;;;;;;;;;;;9.00;nan;101874.91;5026679;28;20008;-33
2022/12/27 07:21:27;;;;;;;;;;;;;;;8.99;nan;101905.34;5020915;28;20413;-33
2022/12/27 07:23:53;;;;;;;;;;;;;;;8.98;nan;101905.56;5023983;28;19978;-33
2022/12/27 07:26:19;;;;;;;;;;;;;;;8.93;nan;101902.69;5027082;28;19921;-33
2022/12/27 07:28:45;;;;;;;;;;;;;;;8.92;nan;101898.38;5026012;28;20469;-33
2022/12/27 07:31:15;;;;;;;;;;;;;;;8.94;nan;101905.13;5027113;28;20027;-33
2022/12/27 07:33:40;;;;;;;;;;;;;;;9.00;nan;101915.00;5021253;28;20484;-33
2022/12/27 07:36:07;;;;;;;;;;;;;;;9.00;nan;101908.84;5022708;28;19925;-33
2022/12/27 07:38:33;;;;;;;;;;;;;;;9.02;nan;101915.63;5024548;28;19917;-33
2022/12/27 07:40:58;;;;;;;;;;;;;;;9.03;nan;101911.09;5024350;28;19921;-33
2022/12/27 07:43:24;;;;;;;;;;;;;;;9.02;nan;101909.47;5046986;22;19996;-33
2022/12/27 07:45:49;;;;;;;;;;;;;;;9.11;nan;101902.00;5019559;28;19925;-32
2022/12/27 07:48:15;;;;;;;;;;;;;;;9.10;nan;101898.53;5024750;28;20063;-32
2022/12/27 07:50:40;;;;;;;;;;;;;;;9.11;nan;101897.50;5020092;28;19960;-32
2022/12/27 07:53:05;;;;;;;;;;;;;;;9.07;nan;101902.44;5024873;28;19925;-32
2022/12/27 07:55:31;;;;;;;;;;;;;;;9.09;nan;101903.06;5019960;28;19917;-32
2022/12/27 07:57:56;;;;;;;;;;;;;;;9.16;nan;101897.69;5021613;28;19975;-32
2022/12/27 08:00:22;;;;;;;;;;;;;;;9.09;nan;101905.72;5023784;28;19918;-32
2022/12/27 08:02:47;;;;;;;;;;;;;;;9.13;nan;101903.44;5023392;28;20299;-32
2022/12/27 08:05:12;;;;;;;;;;;;;;;9.13;nan;101910.66;5024047;28;19928;-33
2022/12/27 08:07:38;;;;;;;;;;;;;;;9.08;nan;101916.63;5027723;28;20014;-32
2022/12/27 08:10:04;;;;;;;;;;;;;;;9.13;nan;101916.81;5032252;28;19972;-32
2022/12/27 08:12:29;;;;;;;;;;;;;;;9.17;nan;101907.38;5033938;28;19979;-33
2022/12/27 08:14:54;;;;;;;;;;;;;;;9.19;nan;101913.31;5024439;28;19917;-32
2022/12/27 08:17:22;;;;;;;;;;;;;;;9.24;nan;101913.50;5023491;28;20390;-32
2022/12/27 08:19:50;;;;;;;;;;;;;;;9.22;nan;101915.56;5027824;28;20410;-32
2022/12/27 08:22:15;;;;;;;;;;;;;;;9.26;nan;101915.97;5027255;28;19917;-32
2022/12/27 08:24:41;;;;;;;;;;;;;;;9.32;nan;101926.63;5029226;28;19920;-32
2022/12/27 08:27:07;;;;;;;;;;;;;;;9.30;nan;101923.34;5032688;28;20434;-32
2022/12/27 08:29:32;;;;;;;;;;;;;;;9.35;nan;101928.91;5027313;28;19913;-33
2022/12/27 08:31:57;;;;;;;;;;;;;;;9.41;nan;101926.41;5023971;28;19924;-32
2022/12/27 08:34:23;;;;;;;;;;;;;;;9.45;nan;101922.28;5028844;28;19944;-32
2022/12/27 08:36:51;;;;;;;;;;;;;;;9.42;nan;101931.53;5026351;28;20016;-33
2022/12/27 08:39:17;;;;;;;;;;;;;;;9.49;nan;101913.59;5025685;28;19921;-32
2022/12/27 08:41:42;;;;;;;;;;;;;;;9.51;nan;101926.75;5026390;28;20290;-32
2022/12/27 08:44:08;;;;;;;;;;;;;;;9.57;nan;101928.63;5023224;28;19928;-32
2022/12/27 08:46:34;;;;;;;;;;;;;;;9.53;nan;101922.06;5027939;28;20283;-32
2022/12/27 08:48:59;;;;;;;;;;;;;;;9.64;nan;101910.66;5026219;28;19932;-32
2022/12/27 08:51:24;;;;;;;;;;;;;;;9.68;nan;101914.53;5029077;28;20450;-32
2022/12/27 08:53:50;;;;;;;;;;;;;;;9.76;nan;101911.63;5025828;28;20319;-32
2022/12/27 08:56:15;;;;;;;;;;;;;;;9.81;nan;101925.19;5021948;28;19925;-32
2022/12/27 08:58:40;;;;;;;;;;;;;;;9.83;nan;101915.09;5026281;28;19917;-32
2022/12/27 09:01:06;;;;;;;;;;;;;;;9.91;nan;101914.84;5027244;28;19925;-33
2022/12/27 09:03:32;;;;;;;;;;;;;;;9.94;nan;101925.13;5024628;28;19974;-32
2022/12/27 09:06:08;;;;;;;;;;;;;;;9.99;nan;101914.59;5020436;28;20770;-33
2022/12/27 09:08:33;;;;;;;;;;;;;;;10.09;nan;101921.34;5012890;28;20071;-33
2022/12/27 09:11:05;;;;;;;;;;;;;;;10.16;nan;101914.88;5020599;28;19955;-32
2022/12/27 09:13:31;;;;;;;;;;;;;;;10.19;nan;101921.66;5024938;28;19920;-32
2022/12/27 09:15:56;;;;;;;;;;;;;;;10.22;nan;101921.25;5019178;28;19936;-33
2022/12/27 09:18:21;;;;;;;;;;;;;;;10.33;nan;101923.25;5020544;28;19913;-33
2022/12/27 09:20:47;;;;;;;;;;;;;;;10.38;nan;101922.59;5024345;28;19952;-33
2022/12/27 09:23:12;;;;;;;;;;;;;;;10.42;nan;101921.97;5022198;28;19921;-33
2022/12/27 09:25:37;;;;;;;;;;;;;;;10.46;nan;101925.84;5019818;28;20009;-33
2022/12/27 09:28:03;;;;;;;;;;;;;;;10.52;nan;101935.66;5023107;28;20024;-33
2022/12/27 09:30:28;;;;;;;;;;;;;;;10.56;nan;101938.72;5029906;28;20402;-33
2022/12/27 09:32:54;;;;;;;;;;;;;;;10.53;nan;101945.34;5021511;28;20319;-33
2022/12/27 09:35:19;;;;;;;;;;;;;;;10.59;nan;101944.50;5012916;28;19921;-33
2022/12/27 09:37:45;;;;;;;;;;;;;;;10.66;nan;101933.69;5029944;28;19968;-33
2022/12/27 09:40:13;;;;;;;;;;;;;;;10.67;nan;101939.88;5016971;28;19925;-33
2022/12/27 09:42:45;;;;;;;;;;;;;;;10.65;nan;101920.53;5025325;28;20379;-34
2022/12/27 09:45:16;;;;;;;;;;;;;;;10.64;nan;101934.97;5022757;28;19929;-33
2022/12/27 09:47:56;;;;;;;;;;;;;;;10.55;nan;101942.44;5021395;28;20366;-33
2022/12/27 09:50:40;;;;;;;;;;;;;;;10.52;nan;101951.75;5018110;28;19917;-33
2022/12/27 09:53:12;;;;;;;;;;;;;;;10.55;nan;101951.31;5023859;28;19928;-33
2022/12/27 09:55:43;;;;;;;;;;;;;;;10.67;nan;101950.59;5026355;28;20329;-33
2022/12/27 09:58:21;;;;;;;;;;;;;;;10.63;nan;101947.53;5016649;28;19928;-33
2022/12/27 10:00:48;;;;;;;;;;;;;;;10.70;nan;101950.97;5019662;28;19917;-33
2022/12/27 10:03:23;;;;;;;;;;;;;;;10.79;nan;101944.31;5020808;28;19978;-33
2022/12/27 10:05:52;;;;;;;;;;;;;;;10.91;nan;101952.44;5019134;28;19975;-33
2022/12/27 10:08:37;;;;;;;;;;;;;;;10.89;nan;101949.97;5018245;28;19920;-33
2022/12/27 10:11:34;;;;;;;;;;;;;;;10.87;nan;101948.56;5016623;28;20029;-33
2022/12/27 10:14:18;;;;;;;;;;;;;;;10.94;nan;101948.50;5015870;28;19924;-33
2022/12/27 10:16:49;;;;;;;;;;;;;;;10.90;nan;101945.44;5019422;28;19966;-33
2022/12/27 10:19:14;;;;;;;;;;;;;;;10.92;nan;101948.72;5017066;28;19978;-33
2022/12/27 10:21:49;;;;;;;;;;;;;;;10.95;nan;101944.75;5019878;28;19925;-33
2022/12/27 10:24:19;;;;;;;;;;;;;;;10.97;nan;101962.31;5022406;28;19925;-33
2022/12/27 10:26:45;;;;;;;;;;;;;;;10.96;nan;101966.03;5017359;28;19932;-33
2022/12/27 10:29:17;;;;;;;;;;;;;;;10.94;nan;101957.34;5013209;28;19925;-33
2022/12/27 10:31:43;;;;;;;;;;;;;;;10.91;nan;101963.16;5017196;28;20417;-33
2022/12/27 10:34:12;;;;;;;;;;;;;;;10.84;nan;101968.59;5014716;28;20008;-33
2022/12/27 10:36:38;;;;;;;;;;;;;;;10.80;nan;101972.75;5017475;28;20317;-33
2022/12/27 10:39:14;;;;;;;;;;;;;;;10.86;nan;101968.38;5014953;28;19917;-33
2022/12/27 10:41:48;;;;;;;;;;;;;;;10.96;nan;101965.22;5013972;28;19921;-33
2022/12/27 10:44:14;;;;;;;;;;;;;;;10.99;nan;101979.00;5017022;28;19925;-33
2022/12/27 10:46:42;;;;;;;;;;;;;;;11.08;nan;101977.66;5017159;28;19979;-33
2022/12/27 10:49:19;;;;;;;;;;;;;;;11.12;nan;101986.88;5019242;28;19957;-33
2022/12/27 10:51:44;;;;;;;;;;;;;;;11.22;nan;101996.31;5014801;28;19917;-33
2022/12/27 10:54:10;;;;;;;;;;;;;;;11.28;nan;101996.22;5019073;28;19925;-33
2022/12/27 10:56:37;;;;;;;;;;;;;;;11.32;nan;101991.25;5015055;28;19921;-33
2022/12/27 10:59:11;;;;;;;;;;;;;;;11.40;nan;101996.31;5025047;28;19999;-33
2022/12/27 11:01:36;;;;;;;;;;;;;;;11.42;nan;102000.41;5022158;28;19944;-33
2022/12/27 11:04:07;;;;;;;;;;;;;;;11.45;nan;101999.13;5024338;28;19921;-34
2022/12/27 11:06:33;;;;;;;;;;;;;;;11.44;nan;102002.88;5014277;28;20241;-33
2022/12/27 11:09:16;;;;;;;;;;;;;;;11.41;nan;102006.81;5016421;28;19925;-33
2022/12/27 11:11:41;;;;;;;;;;;;;;;11.48;nan;102007.56;5023542;28;20025;-33
2022/12/27 11:14:09;;;;;;;;;;;;;;;11.47;nan;102013.16;5021182;28;20321;-33
2022/12/27 11:16:34;;;;;;;;;;;;;;;11.52;nan;102016.00;5019938;28;19917;-33
2022/12/27 11:19:01;;;;;;;;;;;;;;;11.59;nan;102019.44;5018614;28;19932;-33
2022/12/27 11:21:28;;;;;;;;;;;;;;;11.72;nan;102021.97;5019997;28;19927;-34
2022/12/27 11:23:58;;;;;;;;;;;;;;;11.77;nan;102023.97;5026871;28;19933;-33
2022/12/27 11:26:29;;;;;;;;;;;;;;;11.71;nan;102023.03;5022504;28;19925;-34
2022/12/27 11:28:57;;;;;;;;;;;;;;;11.73;nan;102026.28;5021338;28;20338;-33
2022/12/27 11:31:35;;;;;;;;;;;;;;;11.77;nan;102032.03;5022871;28;19920;-33
2022/12/27 11:34:06;;;;;;;;;;;;;;;11.75;nan;102031.44;5021896;28;19925;-33
2022/12/27 11:36:34;;;;;;;;;;;;;;;11.72;nan;102030.03;5017886;28;19932;-33
2022/12/27 11:39:00;;;;;;;;;;;;;;;11.78;nan;102044.41;5029930;28;19983;-33
2022/12/27 11:41:31;;;;;;;;;;;;;;;11.83;nan;102043.75;5033637;28;19979;-33
2022/12/27 11:44:15;;;;;;;;;;;;;;;11.85;nan;102036.28;5021442;28;19928;-34
2022/12/27 11:46:59;;;;;;;;;;;;;;;11.88;nan;102041.25;5025984;28;20008;-34
2022/12/27 11:49:40;;;;;;;;;;;;;;;11.86;nan;102029.91;5021930;28;19928;-34
2022/12/27 11:52:24;;;;;;;;;;;;;;;11.93;nan;102038.69;5031840;28;19921;-33
2022/12/27 11:55:03;;;;;;;;;;;;;;;11.95;nan;102033.91;5033454;28;19925;-34
2022/12/27 11:57:39;;;;;;;;;;;;;;;11.96;nan;102038.25;5028175;28;19940;-34
2022/12/27 12:00:18;;;;;;;;;;;;;;;11.93;nan;102049.44;5029813;28;19949;-33
2022/12/27 12:03:02;;;;;;;;;;;;;;;11.94;nan;102053.75;5024158;28;20378;-33
2022/12/27 12:05:28;;;;;;;;;;;;;;;11.94;nan;102051.06;5024110;28;19936;-33
2022/12/27 12:08:12;;;;;;;;;;;;;;;11.96;nan;102065.09;5027100;28;19924;-33
2022/12/27 12:10:43;;;;;;;;;;;;;;;12.00;nan;102060.91;5033748;28;19998;-33
2022/12/27 12:13:08;;;;;;;;;;;;;;;12.01;nan;102068.75;5027346;28;19943;-34
2022/12/27 12:15:40;;;;;;;;;;;;;;;12.06;nan;102060.03;5026412;28;20414;-33
2022/12/27 12:18:12;;;;;;;;;;;;;;;12.13;nan;102074.19;5023804;28;20418;-34
2022/12/27 12:20:42;;;;;;;;;;;;;;;12.12;nan;102075.22;5025186;28;20008;-34
2022/12/27 12:23:11;;;;;;;;;;;;;;;12.11;nan;102084.34;5024385;28;19921;-34
2022/12/27 12:25:55;;;;;;;;;;;;;;;12.17;nan;102083.44;5034734;28;20034;-34
2022/12/27 12:28:31;;;;;;;;;;;;;;;12.14;nan;102085.75;5026977;28;19925;-33
2022/12/27 12:31:14;;;;;;;;;;;;;;;12.18;nan;102085.06;5032560;28;19921;-33
2022/12/27 12:33:46;;;;;;;;;;;;;;;12.16;nan;102081.78;5028733;28;19917;-34
2022/12/27 12:36:14;;;;;;;;;;;;;;;12.16;nan;102089.84;5031537;28;19917;-34
2022/12/27 12:38:55;;;;;;;;;;;;;;;12.15;nan;102093.59;5024065;28;20157;-33
2022/12/27 12:41:44;;;;;;;;;;;;;;;12.10;nan;102094.28;5025257;28;19980;-34
2022/12/27 12:44:33;;;;;;;;;;;;;;;12.12;nan;102102.09;5030205;28;20379;-34
2022/12/27 12:47:19;;;;;;;;;;;;;;;12.14;nan;102097.31;5028431;28;19929;-34
2022/12/27 12:50:03;;;;;;;;;;;;;;;12.13;nan;102101.06;5029423;28;20466;-34
2022/12/27 12:52:29;;;;;;;;;;;;;;;12.18;nan;102097.69;5032192;28;19917;-34
2022/12/27 12:55:03;;;;;;;;;;;;;;;12.20;nan;102093.72;5030435;28;19948;-34
2022/12/27 12:57:35;;;;;;;;;;;;;;;12.20;nan;102093.72;5027445;28;20817;-34
2022/12/27 13:00:00;;;;;;;;;;;;;;;12.24;nan;102096.81;5026998;28;20276;-34
2022/12/27 13:02:29;;;;;;;;;;;;;;;12.27;nan;102102.53;5026944;28;19932;-33
2022/12/27 13:04:54;;;;;;;;;;;;;;;12.22;nan;102098.91;5030849;28;20268;-33
2022/12/27 13:07:25;;;;;;;;;;;;;;;12.26;nan;102108.97;5028949;28;19925;-33
2022/12/27 13:09:50;;;;;;;;;;;;;;;12.33;nan;102116.94;5025649;28;20332;-34
2022/12/27 13:12:21;;;;;;;;;;;;;;;12.37;nan;102107.34;5028267;28;20131;-34
2022/12/27 13:14:50;;;;;;;;;;;;;;;12.49;nan;102105.56;5025185;28;19925;-33
2022/12/27 13:17:23;;;;;;;;;;;;;;;12.98;nan;102106.28;5028710;28;19983;-34
2022/12/27 13:19:54;;;;;;;;;;;;;;;13.88;nan;102108.69;5027073;28;19925;-34
2022/12/27 13:22:22;;;;;;;;;;;;;;;14.59;nan;102115.53;5028292;28;20016;-34
2022/12/27 13:24:50;;;;;;;;;;;;;;;15.06;nan;102107.19;5026607;28;19921;-34
2022/12/27 13:27:19;;;;;;;;;;;;;;;15.39;nan;102109.88;5029386;28;20334;-34
2022/12/27 13:29:56;;;;;;;;;;;;;;;15.61;nan;102109.94;5025346;28;20043;-34
2022/12/27 13:32:24;;;;;;;;;;;;;;;15.42;nan;102116.66;5021330;28;19918;-33
2022/12/27 13:35:16;;;;;;;;;;;;;;;15.11;nan;102134.28;5021302;28;20008;-33
2022/12/27 13:37:54;;;;;;;;;;;;;;;14.63;nan;102135.56;5024040;28;19921;-33
2022/12/27 13:40:19;;;;;;;;;;;;;;;14.21;nan;102141.19;5028891;28;19917;-33
2022/12/27 13:42:59;;;;;;;;;;;;;;;13.99;nan;102142.03;5028842;28;19951;-34
2022/12/27 13:45:45;;;;;;;;;;;;;;;13.66;nan;102134.59;5023266;28;19931;-33
2022/12/27 13:48:29;;;;;;;;;;;;;;;13.39;nan;102132.34;5030873;28;20329;-34
2022/12/27 13:51:00;;;;;;;;;;;;;;;13.20;nan;102133.50;5027520;28;19924;-33
2022/12/27 13:53:44;;;;;;;;;;;;;;;13.06;nan;102126.66;5026898;28;19928;-33
2022/12/27 13:56:09;;;;;;;;;;;;;;;12.96;nan;102133.44;5029843;28;19928;-33
2022/12/27 13:58:43;;;;;;;;;;;;;;;12.81;nan;102135.72;5024934;28;19921;-33
2022/12/27 14:01:09;;;;;;;;;;;;;;;12.76;nan;102143.66;5024860;28;19944;-33
2022/12/27 14:03:40;;;;;;;;;;;;;;;12.66;nan;102144.19;5025869;28;20382;-33
2022/12/27 14:06:20;;;;;;;;;;;;;;;12.68;nan;102157.41;5025181;28;21200;-33
2022/12/27 14:09:00;;;;;;;;;;;;;;;12.49;nan;102153.94;5022138;28;20308;-34
2022/12/27 14:11:43;;;;;;;;;;;;;;;12.42;nan;102155.09;5023493;28;19921;-33
2022/12/27 14:14:12;;;;;;;;;;;;;;;12.43;nan;102148.66;5022899;28;19932;-34
2022/12/27 14:16:54;;;;;;;;;;;;;;;12.36;nan;102149.53;5023459;28;20572;-33
2022/12/27 14:19:19;;;;;;;;;;;;;;;12.42;nan;102153.22;5023883;28;19924;-33
2022/12/27 14:21:57;;;;;;;;;;;;;;;12.38;nan;102152.81;5023120;28;20375;-34
2022/12/27 14:24:41;;;;;;;;;;;;;;;12.32;nan;102164.47;5023793;28;19963;-33
2022/12/27 14:27:09;;;;;;;;;;;;;;;12.24;nan;102163.97;5023818;28;19929;-34
2022/12/27 14:29:37;;;;;;;;;;;;;;;12.22;nan;102169.59;5023883;28;20405;-34
2022/12/27 14:32:03;;;;;;;;;;;;;;;12.22;nan;102172.25;5020170;28;19976;-34
2022/12/27 14:34:28;;;;;;;;;;;;;;;12.17;nan;102166.72;5022135;28;19921;-34
2022/12/27 14:36:53;;;;;;;;;;;;;;;12.19;nan;102159.25;5018604;28;20303;-35
2022/12/27 14:39:34;;;;;;;;;;;;;;;12.17;nan;102166.72;5022198;28;19959;-34
2022/12/27 14:42:18;;;;;;;;;;;;;;;12.08;nan;102163.53;5021605;28;19967;-35
2022/12/27 14:44:49;;;;;;;;;;;;;;;11.99;nan;102167.53;5021677;28;19964;-34
2022/12/27 14:47:33;;;;;;;;;;;;;;;11.91;nan;102165.16;5010803;28;20370;-34
2022/12/27 14:49:58;;;;;;;;;;;;;;;11.92;nan;102168.66;5016142;28;20111;-35
2022/12/27 14:52:42;;;;;;;;;;;;;;;11.84;nan;102172.44;5016378;28;20052;-34
2022/12/27 14:55:28;;;;;;;;;;;;;;;11.77;nan;102171.66;5020354;28;19956;-34
2022/12/27 14:57:53;;;;;;;;;;;;;;;11.76;nan;102178.06;5018746;28;19917;-34
2022/12/27 15:00:20;;;;;;;;;;;;;;;11.71;nan;102186.81;5020765;28;19924;-35
2022/12/27 15:02:58;;;;;;;;;;;;;;;11.68;nan;102189.09;5018930;28;19921;-35